Time;durP1;ratioP1;P1;durP2;ratioP2;P2;SDS_P1;SDS_P2;PMS_P1;PMS_P2;Temp;Humidity;BMP_temperature;BMP_pressure;BME280_temperature;BME280_humidity;BME280_pressure;Samples;Min_cycle;Max_cycle;Signal;HPM_P1;HPM_P2
2024/03/18 00:02:22;;;;;;;2.05;0.90;;;;;;;18.96;50.33;101467.47;4966957;28;20026;-68
2024/03/18 00:04:48;;;;;;;3.75;1.30;;;;;;;19.00;50.07;101470.69;4967570;28;20420;-69
2024/03/18 00:07:13;;;;;;;3.17;1.30;;;;;;;18.99;50.06;101477.78;4967615;28;20050;-68
2024/03/18 00:09:39;;;;;;;2.45;1.08;;;;;;;18.94;50.13;101468.50;4967979;28;20529;-69
2024/03/18 00:12:04;;;;;;;3.33;1.40;;;;;;;18.87;50.01;101469.91;4968162;28;20030;-69
2024/03/18 00:14:30;;;;;;;2.65;1.27;;;;;;;18.97;50.23;101478.84;4966318;28;20367;-68
2024/03/18 00:16:55;;;;;;;1.98;1.23;;;;;;;18.91;49.99;101466.94;4968539;28;20031;-68
2024/03/18 00:19:24;;;;;;;3.35;1.35;;;;;;;18.95;50.14;101486.06;4968911;28;20105;-68
2024/03/18 00:21:50;;;;;;;2.70;1.20;;;;;;;18.92;50.40;101470.44;4969378;28;20379;-68
2024/03/18 00:24:15;;;;;;;2.95;1.50;;;;;;;18.91;50.09;101472.22;4970134;28;20035;-68
2024/03/18 00:26:41;;;;;;;2.88;1.33;;;;;;;18.79;50.12;101455.47;4970340;28;20026;-68
2024/03/18 00:29:06;;;;;;;3.65;1.20;;;;;;;18.82;50.04;101462.34;4970750;28;20399;-69
2024/03/18 00:31:31;;;;;;;3.20;1.40;;;;;;;18.85;50.16;101470.91;4969986;28;20126;-68
2024/03/18 00:33:56;;;;;;;2.97;1.10;;;;;;;18.90;50.28;101477.63;4970381;28;20294;-68
2024/03/18 00:36:22;;;;;;;3.60;1.83;;;;;;;18.88;50.11;101480.38;4970328;28;20027;-68
2024/03/18 00:38:47;;;;;;;3.15;1.70;;;;;;;18.76;50.20;101465.44;4970233;28;20044;-68
2024/03/18 00:44:00;;;;;;;2.88;1.40;;;;;;;18.83;50.14;101472.78;4971365;28;20112;-70
2024/03/18 00:46:25;;;;;;;3.08;1.38;;;;;;;18.74;50.12;101454.97;4971349;28;20490;-68
2024/03/18 00:48:50;;;;;;;2.75;1.40;;;;;;;18.83;50.07;101462.22;4972776;28;20146;-67
2024/03/18 00:51:16;;;;;;;3.58;1.65;;;;;;;18.86;49.94;101466.44;4971508;28;20478;-68
2024/03/18 00:53:41;;;;;;;3.30;1.60;;;;;;;18.74;50.21;101448.84;4972453;28;20026;-68
2024/03/18 00:56:07;;;;;;;4.13;1.50;;;;;;;18.74;50.24;101449.69;4972897;28;20264;-68
2024/03/18 00:58:33;;;;;;;4.15;1.77;;;;;;;18.75;50.15;101443.44;4972562;28;20206;-68
2024/03/18 01:00:59;;;;;;;3.25;1.67;;;;;;;18.84;50.20;101461.28;4972372;28;20035;-67
2024/03/18 01:03:25;;;;;;;3.20;1.70;;;;;;;18.68;49.96;101437.78;4972660;28;20034;-69
2024/03/18 01:05:50;;;;;;;2.72;1.60;;;;;;;18.69;50.13;101446.53;4972605;28;20035;-68
2024/03/18 01:08:15;;;;;;;3.13;1.77;;;;;;;18.68;50.05;101440.41;4972840;28;20065;-69
2024/03/18 01:10:41;;;;;;;3.10;1.67;;;;;;;18.79;50.31;101452.81;4966855;28;20284;-69
2024/03/18 01:13:11;;;;;;;3.13;1.70;;;;;;;18.79;49.99;101450.19;4966846;28;20495;-69
2024/03/18 01:15:37;;;;;;;4.75;1.85;;;;;;;18.78;50.25;101453.78;4967340;28;20429;-69
2024/03/18 01:18:04;;;;;;;3.15;1.63;;;;;;;18.69;50.09;101441.25;4967559;28;20069;-70
2024/03/18 01:20:30;;;;;;;3.53;2.00;;;;;;;18.74;50.14;101443.56;4967721;28;20142;-70
2024/03/18 01:22:55;;;;;;;3.50;1.90;;;;;;;18.75;50.08;101442.59;4967152;28;20150;-70
2024/03/18 01:25:21;;;;;;;3.50;1.73;;;;;;;18.74;50.21;101439.13;4967370;28;20039;-69
2024/03/18 01:27:47;;;;;;;3.72;2.08;;;;;;;18.61;50.26;101419.88;4965678;28;20057;-70
2024/03/18 01:30:13;;;;;;;3.63;2.00;;;;;;;18.68;50.07;101431.66;4967118;28;20038;-70
2024/03/18 01:32:39;;;;;;;4.60;2.05;;;;;;;18.62;50.20;101417.09;4967270;28;20026;-69
2024/03/18 01:35:06;;;;;;;3.72;2.22;;;;;;;18.74;50.27;101443.56;4967185;28;20513;-69
2024/03/18 01:37:32;;;;;;;3.67;1.80;;;;;;;18.74;50.27;101436.50;4970464;28;20472;-70
2024/03/18 01:39:57;;;;;;;3.55;1.90;;;;;;;18.62;50.24;101416.28;4969334;28;20022;-70
2024/03/18 01:42:23;;;;;;;4.50;2.40;;;;;;;18.63;50.20;101417.97;4970942;28;20490;-70
2024/03/18 01:44:53;;;;;;;4.05;2.00;;;;;;;18.60;50.29;101415.56;4971135;28;20507;-70
2024/03/18 01:47:20;;;;;;;3.85;2.08;;;;;;;18.59;50.26;101408.59;4970791;28;20034;-70
2024/03/18 01:49:46;;;;;;;3.80;2.00;;;;;;;18.66;50.29;101423.84;4970695;28;20031;-68
2024/03/18 01:52:11;;;;;;;4.88;2.42;;;;;;;18.69;50.33;101422.75;4969452;28;20035;-69
2024/03/18 01:54:37;;;;;;;3.80;2.28;;;;;;;18.71;50.33;101427.94;4968537;28;20027;-69
2024/03/18 01:57:03;;;;;;;3.47;1.98;;;;;;;18.68;50.18;101418.47;4970367;28;20022;-70
2024/03/18 01:59:28;;;;;;;3.97;2.30;;;;;;;18.65;50.30;101416.88;4970772;28;20027;-68
2024/03/18 02:01:53;;;;;;;3.78;2.33;;;;;;;18.56;50.17;101395.59;4970143;28;20375;-68
2024/03/18 02:04:19;;;;;;;3.85;2.40;;;;;;;18.65;50.19;101414.25;4970190;28;20542;-68
2024/03/18 02:06:44;;;;;;;3.60;2.05;;;;;;;18.67;50.06;101422.91;4970492;28;20038;-69
2024/03/18 02:09:09;;;;;;;3.80;2.28;;;;;;;18.65;50.36;101408.97;4970195;28;20498;-69
2024/03/18 02:11:35;;;;;;;4.85;2.28;;;;;;;18.63;50.21;101412.69;4969053;28;20085;-70
2024/03/18 02:14:00;;;;;;;3.78;2.33;;;;;;;18.62;50.38;101408.34;4970575;28;20387;-68
2024/03/18 02:16:27;;;;;;;3.97;2.35;;;;;;;18.57;50.10;101395.50;4970280;28;20027;-68
2024/03/18 02:18:53;;;;;;;3.90;2.33;;;;;;;18.54;50.35;101397.53;4970540;28;20031;-68
2024/03/18 02:21:18;;;;;;;4.05;2.45;;;;;;;18.63;50.21;101412.69;4970241;28;20033;-68
2024/03/18 02:23:43;;;;;;;3.30;2.13;;;;;;;18.53;50.12;101391.38;4970415;28;20023;-68
2024/03/18 02:26:09;;;;;;;4.45;2.33;;;;;;;18.61;50.29;101404.88;4969861;28;20038;-68
2024/03/18 02:28:41;;;;;;;4.53;2.60;;;;;;;18.59;50.03;101396.22;4969906;28;20051;-69
2024/03/18 02:31:07;;;;;;;4.53;2.72;;;;;;;18.56;50.22;101391.16;4970394;28;20034;-69
2024/03/18 02:33:32;;;;;;;4.55;2.50;;;;;;;18.62;50.29;101395.16;4970051;28;20415;-68
2024/03/18 02:36:03;;;;;;;4.13;2.42;;;;;;;18.53;50.28;101382.63;4969882;28;20467;-69
2024/03/18 02:38:28;;;;;;;3.72;2.42;;;;;;;18.62;50.32;101396.00;4969786;28;20074;-68
2024/03/18 02:40:54;;;;;;;4.85;3.13;;;;;;;18.49;50.40;101374.13;4969994;28;20058;-69
2024/03/18 02:43:19;;;;;;;4.20;2.83;;;;;;;18.50;50.28;101370.53;4969779;28;20048;-69
2024/03/18 02:45:44;;;;;;;4.53;2.72;;;;;;;18.58;50.25;101386.63;4969776;28;20040;-68
2024/03/18 02:48:10;;;;;;;4.85;2.83;;;;;;;18.57;50.17;101377.03;4969146;28;20034;-68
2024/03/18 02:50:35;;;;;;;4.88;2.70;;;;;;;18.48;50.35;101357.44;4970190;28;20027;-68
2024/03/18 02:53:00;;;;;;;4.10;2.80;;;;;;;18.48;50.51;101356.59;4969843;28;20033;-68
2024/03/18 02:55:25;;;;;;;5.05;3.17;;;;;;;18.47;50.25;101355.75;4969797;28;20058;-68
2024/03/18 02:57:51;;;;;;;4.70;3.13;;;;;;;18.52;50.25;101365.97;4969528;28;20057;-67
2024/03/18 03:00:17;;;;;;;4.80;3.30;;;;;;;18.47;50.28;101352.28;4969888;28;20094;-70
2024/03/18 03:02:42;;;;;;;5.30;3.25;;;;;;;18.46;50.09;101354.06;4969135;28;20023;-69
2024/03/18 03:05:09;;;;;;;4.63;3.20;;;;;;;18.53;49.83;101365.00;4969020;28;20054;-70
2024/03/18 03:07:34;;;;;;;4.53;3.15;;;;;;;18.55;50.49;101362.25;4969695;28;20031;-69
2024/03/18 03:10:03;;;;;;;4.63;3.25;;;;;;;18.55;50.09;101356.97;4969055;28;20038;-69
2024/03/18 03:12:28;;;;;;;4.68;3.40;;;;;;;18.45;50.27;101335.69;4969134;28;20031;-69
2024/03/18 03:14:54;;;;;;;4.53;3.22;;;;;;;18.57;50.21;101363.81;4969397;28;20023;-69
2024/03/18 03:17:19;;;;;;;5.28;3.38;;;;;;;18.54;49.91;101356.13;4969549;28;20026;-69
2024/03/18 03:19:44;;;;;;;4.93;3.20;;;;;;;18.46;50.24;101342.66;4969382;28;20023;-68
2024/03/18 03:22:11;;;;;;;5.53;3.53;;;;;;;18.52;50.36;101355.41;4968831;28;20031;-69
2024/03/18 03:24:36;;;;;;;4.30;3.28;;;;;;;18.42;50.23;101330.66;4968778;28;20491;-69
2024/03/18 03:27:02;;;;;;;4.18;3.10;;;;;;;18.45;50.21;101343.63;4968852;28;20062;-69
2024/03/18 03:29:27;;;;;;;4.32;3.33;;;;;;;18.49;49.98;101353.84;4969243;28;20042;-68
2024/03/18 03:31:52;;;;;;;4.43;3.13;;;;;;;18.47;50.35;101341.72;4968903;28;20038;-69
2024/03/18 03:34:18;;;;;;;4.68;2.90;;;;;;;18.42;50.11;101342.06;4968928;28;20034;-69
2024/03/18 03:36:44;;;;;;;4.57;3.20;;;;;;;18.53;50.31;101359.72;4968501;28;20112;-69
2024/03/18 03:39:11;;;;;;;4.22;3.05;;;;;;;18.48;50.17;101354.81;4969027;28;20089;-69
2024/03/18 03:41:36;;;;;;;4.38;3.00;;;;;;;18.52;50.30;101360.69;4968780;28;20045;-70
2024/03/18 03:44:01;;;;;;;4.78;3.30;;;;;;;18.53;50.21;101358.88;4968561;28;20396;-69
2024/03/18 03:46:27;;;;;;;4.40;2.97;;;;;;;18.43;50.26;101348.19;4968643;28;20026;-68
2024/03/18 03:48:52;;;;;;;4.55;2.90;;;;;;;18.41;50.30;101342.19;4969045;28;20026;-69
2024/03/18 03:51:17;;;;;;;5.07;3.28;;;;;;;18.44;49.98;101349.88;4968835;28;20034;-68
2024/03/18 03:53:42;;;;;;;4.75;3.30;;;;;;;18.50;50.18;101367.91;4968600;28;20023;-68
2024/03/18 03:56:08;;;;;;;5.65;3.13;;;;;;;18.39;50.34;101344.06;4968765;28;20031;-68
2024/03/18 03:58:34;;;;;;;4.30;2.90;;;;;;;18.47;50.20;101363.66;4968674;28;20030;-68
2024/03/18 04:00:59;;;;;;;4.38;3.10;;;;;;;18.48;50.11;101364.50;4968696;28;20069;-69
2024/03/18 04:03:25;;;;;;;4.60;3.08;;;;;;;18.44;50.35;101357.78;4967354;28;20411;-70
2024/03/18 04:05:54;;;;;;;3.80;2.70;;;;;;;18.37;50.20;101348.63;4968299;28;20057;-70
2024/03/18 04:08:20;;;;;;;3.85;2.65;;;;;;;18.49;50.30;101372.31;4968481;28;20026;-69
2024/03/18 04:10:46;;;;;;;4.63;2.92;;;;;;;18.46;50.27;101363.78;4968157;28;20038;-70
2024/03/18 04:13:11;;;;;;;4.72;3.13;;;;;;;18.39;50.32;101359.91;4968389;28;20031;-68
2024/03/18 04:15:36;;;;;;;5.18;2.90;;;;;;;18.48;50.21;101378.56;4966386;28;20042;-69
2024/03/18 04:18:03;;;;;;;4.65;3.15;;;;;;;18.35;50.37;101354.03;4968310;28;20121;-69
2024/03/18 04:20:29;;;;;;;3.90;2.60;;;;;;;18.35;50.09;101353.19;4968117;28;20030;-69
2024/03/18 04:22:56;;;;;;;3.90;2.47;;;;;;;18.35;50.02;101355.81;4968341;28;20077;-68
2024/03/18 04:25:23;;;;;;;3.90;2.70;;;;;;;18.43;50.19;101374.56;4968177;28;20134;-68
2024/03/18 04:27:48;;;;;;;4.50;2.60;;;;;;;18.43;50.08;101369.28;4968001;28;20503;-68
2024/03/18 04:30:17;;;;;;;4.10;2.53;;;;;;;18.34;50.08;101360.28;4967865;28;20057;-68
2024/03/18 04:32:45;;;;;;;4.30;2.65;;;;;;;18.43;50.29;101378.03;4967974;28;20038;-70
2024/03/18 04:35:11;;;;;;;4.10;2.75;;;;;;;18.45;50.26;101386.72;4967650;28;20037;-69
2024/03/18 04:37:45;;;;;;;4.03;2.70;;;;;;;18.44;50.22;101387.66;4968285;28;20031;-69
2024/03/18 04:40:11;;;;;;;4.00;2.67;;;;;;;18.44;50.30;101384.19;4967924;28;20027;-67
2024/03/18 04:42:37;;;;;;;4.20;2.70;;;;;;;18.38;50.19;101374.06;4967856;28;20046;-68
2024/03/18 04:45:03;;;;;;;4.10;2.78;;;;;;;18.11;50.22;101344.31;4967773;28;20042;-69
2024/03/18 04:47:28;;;;;;;4.20;2.70;;;;;;;18.32;50.21;101367.44;4967122;28;20390;-68
2024/03/18 04:49:54;;;;;;;3.90;2.42;;;;;;;18.24;50.01;101357.44;4967569;28;20030;-70
2024/03/18 04:52:19;;;;;;;4.10;2.42;;;;;;;18.42;50.07;101394.84;4967750;28;20035;-68
2024/03/18 04:54:45;;;;;;;4.20;2.60;;;;;;;18.39;50.08;101384.53;4967824;28;20142;-68
2024/03/18 04:57:11;;;;;;;4.03;2.45;;;;;;;18.28;50.03;101372.09;4967592;28;20027;-68
2024/03/18 04:59:36;;;;;;;4.15;2.45;;;;;;;18.31;50.11;101374.53;4967477;28;20377;-68
2024/03/18 05:02:02;;;;;;;3.88;2.30;;;;;;;18.37;50.53;101389.03;4966660;28;20375;-68
2024/03/18 05:04:27;;;;;;;5.38;2.60;;;;;;;18.40;50.58;101394.09;4967510;28;20030;-70
2024/03/18 05:06:52;;;;;;;4.05;2.53;;;;;;;18.29;50.08;101383.50;4967606;28;20031;-68
2024/03/18 05:09:18;;;;;;;4.00;2.60;;;;;;;18.37;50.35;101396.13;4967244;28;20027;-70
2024/03/18 05:11:43;;;;;;;4.05;2.45;;;;;;;18.37;50.21;101391.69;4972114;28;20268;-68
2024/03/18 05:14:08;;;;;;;4.30;2.70;;;;;;;18.38;50.42;101397.81;4973926;28;20099;-69
2024/03/18 05:16:38;;;;;;;3.90;2.35;;;;;;;18.36;50.48;101390.03;4974187;28;20030;-69
2024/03/18 05:19:04;;;;;;;4.07;2.50;;;;;;;18.30;50.39;101383.38;4974156;28;20027;-69
2024/03/18 05:21:29;;;;;;;4.60;2.40;;;;;;;18.38;50.27;101400.47;4973940;28;20348;-69
2024/03/18 05:23:54;;;;;;;3.95;2.28;;;;;;;18.29;50.27;101380.84;4973927;28;20074;-70
2024/03/18 05:26:21;;;;;;;3.95;2.47;;;;;;;18.27;50.35;101382.78;4973705;28;20121;-69
2024/03/18 05:28:46;;;;;;;5.00;2.95;;;;;;;18.36;50.11;101390.03;4973711;28;20086;-69
2024/03/18 05:31:12;;;;;;;3.92;2.40;;;;;;;18.36;50.25;101395.28;4973744;28;20035;-70
2024/03/18 05:33:38;;;;;;;3.78;2.40;;;;;;;18.34;50.24;101396.34;4974099;28;20034;-69
2024/03/18 05:36:03;;;;;;;4.45;2.30;;;;;;;18.28;50.33;101384.47;4973679;28;20034;-69
2024/03/18 05:38:29;;;;;;;3.88;2.33;;;;;;;18.24;50.21;101377.72;4973994;28;20118;-69
2024/03/18 05:40:54;;;;;;;3.75;2.25;;;;;;;18.35;50.22;101395.41;4973671;28;20118;-69
2024/03/18 05:43:19;;;;;;;3.97;2.47;;;;;;;18.22;50.29;101369.91;4973362;28;20027;-69
2024/03/18 05:45:44;;;;;;;3.67;2.10;;;;;;;18.34;50.36;101397.22;4971290;28;20122;-69
2024/03/18 05:48:11;;;;;;;3.42;2.15;;;;;;;18.29;50.55;101389.63;4973173;28;20030;-69
2024/03/18 05:50:36;;;;;;;3.72;2.30;;;;;;;18.29;50.34;101391.41;4971870;28;20036;-69
2024/03/18 05:53:02;;;;;;;3.80;2.38;;;;;;;18.26;50.25;101383.72;4973474;28;20422;-69
2024/03/18 05:55:27;;;;;;;4.47;2.40;;;;;;;18.36;50.20;101407.63;4973550;28;20031;-69
2024/03/18 05:57:54;;;;;;;4.93;2.40;;;;;;;18.23;50.38;101386.56;4973696;28;20034;-69
2024/03/18 06:00:19;;;;;;;3.80;2.42;;;;;;;18.23;50.20;101386.56;4973637;28;20518;-70
2024/03/18 06:02:47;;;;;;;3.90;2.20;;;;;;;18.23;50.28;101389.22;4971145;28;20089;-69
2024/03/18 06:05:12;;;;;;;5.47;2.55;;;;;;;18.33;50.19;101406.06;4971900;28;20026;-70
2024/03/18 06:07:38;;;;;;;4.00;2.30;;;;;;;18.22;50.22;101390.19;4973433;28;20074;-68
2024/03/18 06:10:03;;;;;;;4.20;2.47;;;;;;;18.20;50.35;101385.03;4973305;28;20068;-69
2024/03/18 06:12:29;;;;;;;3.45;2.28;;;;;;;18.23;50.08;101397.13;4973962;28;20448;-69
2024/03/18 06:14:54;;;;;;;3.92;2.40;;;;;;;18.20;50.09;101392.06;4973114;28;20474;-70
2024/03/18 06:17:19;;;;;;;3.67;2.28;;;;;;;18.31;50.64;101415.91;4972976;28;20074;-70
2024/03/18 06:19:45;;;;;;;3.95;2.38;;;;;;;18.27;50.38;101415.28;4973482;28;20037;-69
2024/03/18 06:22:20;;;;;;;3.72;2.20;;;;;;;18.29;50.44;101409.88;4971555;28;20089;-70
2024/03/18 06:27:29;;;;;;;3.58;1.88;;;;;;;18.27;50.28;101412.63;4968893;28;20620;-70
2024/03/18 06:29:55;;;;;;;3.80;2.03;;;;;;;18.25;50.13;101409.28;4969648;28;20043;-70
2024/03/18 06:32:20;;;;;;;3.65;1.98;;;;;;;18.21;49.87;101399.06;4970335;28;20038;-70
2024/03/18 06:34:45;;;;;;;3.05;1.70;;;;;;;18.29;49.73;101410.75;4969662;28;20047;-70
2024/03/18 06:37:11;;;;;;;4.25;1.90;;;;;;;18.23;49.87;101400.63;4970124;28;20031;-70
2024/03/18 06:39:36;;;;;;;3.60;2.08;;;;;;;18.34;49.84;101415.69;4969252;28;20113;-70
2024/03/18 06:42:01;;;;;;;3.22;1.80;;;;;;;18.27;50.11;101403.88;4970161;28;20042;-70
2024/03/18 06:44:26;;;;;;;3.03;1.60;;;;;;;18.37;49.85;101412.78;4969507;28;20034;-69
2024/03/18 06:46:52;;;;;;;2.58;1.45;;;;;;;18.40;49.87;101422.28;4969592;28;20125;-69
2024/03/18 06:49:17;;;;;;;2.83;1.70;;;;;;;18.31;50.10;101402.72;4969123;28;20070;-69
2024/03/18 06:51:43;;;;;;;2.90;1.60;;;;;;;18.33;50.07;101407.88;4969285;28;20268;-69
2024/03/18 06:54:08;;;;;;;3.28;1.42;;;;;;;18.43;50.07;101422.06;4966648;28;20030;-68
2024/03/18 06:56:34;;;;;;;3.42;1.52;;;;;;;18.43;50.26;101416.78;4967137;28;20033;-68
2024/03/18 06:58:59;;;;;;;3.30;1.95;;;;;;;18.34;49.98;101394.56;4969669;28;20030;-68
2024/03/18 07:01:24;;;;;;;3.58;1.60;;;;;;;18.46;50.15;101420.03;4969638;28;20019;-69
2024/03/18 07:03:50;;;;;;;3.13;1.60;;;;;;;18.42;50.15;101408.03;4968697;28;20038;-68
2024/03/18 07:06:15;;;;;;;3.00;1.50;;;;;;;18.37;50.12;101396.97;4967626;28;20379;-67
2024/03/18 07:08:40;;;;;;;4.35;1.70;;;;;;;18.49;50.04;101418.97;4968805;28;20045;-68
2024/03/18 07:11:06;;;;;;;2.97;1.67;;;;;;;18.42;50.22;101402.75;4969527;28;20117;-67
2024/03/18 07:13:31;;;;;;;3.08;1.70;;;;;;;18.51;50.23;101416.22;4969484;28;20022;-68
2024/03/18 07:15:58;;;;;;;2.95;1.67;;;;;;;18.53;49.95;101427.50;4969322;28;20167;-68
2024/03/18 07:18:24;;;;;;;3.42;1.20;;;;;;;18.45;49.97;101405.19;4969225;28;20030;-68
2024/03/18 07:20:51;;;;;;;2.95;1.40;;;;;;;18.42;50.23;101402.75;4968005;28;20038;-70
2024/03/18 07:23:17;;;;;;;3.42;1.60;;;;;;;18.52;49.97;101416.13;4968447;28;20047;-69
2024/03/18 07:25:42;;;;;;;2.53;1.40;;;;;;;18.44;50.02;101406.13;4967684;28;20049;-69
2024/03/18 07:28:08;;;;;;;3.38;1.58;;;;;;;18.54;49.95;101421.28;4968683;28;20047;-68
2024/03/18 07:30:33;;;;;;;4.07;1.80;;;;;;;18.42;50.24;101392.22;4968543;28;20456;-69
2024/03/18 07:32:59;;;;;;;3.50;1.63;;;;;;;18.47;50.32;101402.44;4967625;28;20124;-68
2024/03/18 07:35:24;;;;;;;5.07;1.90;;;;;;;18.55;50.38;101422.94;4968550;28;20022;-68
2024/03/18 07:37:49;;;;;;;3.28;1.70;;;;;;;18.54;50.29;101424.75;4968789;28;20078;-70
2024/03/18 07:40:15;;;;;;;4.60;2.20;;;;;;;18.49;50.24;101411.06;4968939;28;20466;-68
2024/03/18 07:42:40;;;;;;;3.42;1.70;;;;;;;18.59;50.64;101432.34;4968925;28;20035;-68
2024/03/18 07:45:09;;;;;;;4.10;2.05;;;;;;;18.59;50.59;101434.97;4969031;28;20458;-70
2024/03/18 07:47:35;;;;;;;4.32;1.98;;;;;;;18.55;50.49;101429.09;4968477;28;20035;-69
2024/03/18 07:50:04;;;;;;;4.25;2.10;;;;;;;18.51;50.53;101429.44;4968032;28;20030;-74
2024/03/18 07:52:30;;;;;;;4.03;1.90;;;;;;;18.48;50.48;101426.06;4968732;28;20031;-71
2024/03/18 07:54:55;;;;;;;3.50;2.03;;;;;;;18.58;50.73;101450.00;4968515;28;20026;-72
2024/03/18 07:57:21;;;;;;;3.92;1.80;;;;;;;18.51;50.75;101434.72;4968228;28;20038;-71
2024/03/18 07:59:46;;;;;;;3.85;1.83;;;;;;;18.61;50.73;101454.19;4967451;28;20419;-70
2024/03/18 08:02:12;;;;;;;4.80;2.25;;;;;;;18.51;50.87;101443.47;4966374;28;20948;-71
2024/03/18 08:04:37;;;;;;;4.70;2.38;;;;;;;18.62;50.97;101463.78;4967979;28;20026;-71
2024/03/18 08:07:03;;;;;;;5.05;2.28;;;;;;;18.53;50.91;101438.91;4968160;28;20117;-71
2024/03/18 08:09:30;;;;;;;5.10;2.80;;;;;;;18.61;50.77;101454.19;4967607;28;20089;-71
2024/03/18 08:11:56;;;;;;;4.03;2.30;;;;;;;18.61;51.24;101460.31;4967930;28;20043;-71
2024/03/18 08:14:21;;;;;;;4.03;2.22;;;;;;;18.61;50.75;101462.09;4967730;28;20054;-70
2024/03/18 08:16:46;;;;;;;4.40;2.60;;;;;;;18.60;51.09;101465.72;4966206;28;20042;-70
2024/03/18 08:19:12;;;;;;;5.70;2.47;;;;;;;18.51;50.95;101447.91;4967808;28;20050;-70
2024/03/18 08:21:37;;;;;;;5.78;2.50;;;;;;;18.55;51.00;101455.50;4967806;28;20054;-70
2024/03/18 08:24:03;;;;;;;6.20;2.50;;;;;;;18.55;51.13;101463.41;4968223;28;20432;-63
2024/03/18 08:26:28;;;;;;;5.78;2.50;;;;;;;18.53;51.05;101451.25;4967446;28;20122;-70
2024/03/18 08:28:55;;;;;;;4.78;2.50;;;;;;;18.62;50.97;101466.44;4967493;28;20129;-70
2024/03/18 08:31:20;;;;;;;5.50;2.60;;;;;;;18.57;51.18;101458.84;4966233;28;20467;-70
2024/03/18 08:33:46;;;;;;;8.18;2.70;;;;;;;18.49;51.08;101448.84;4967769;28;20045;-72
2024/03/18 08:36:12;;;;;;;5.53;3.03;;;;;;;18.61;51.05;101472.66;4967386;28;20037;-71
2024/03/18 08:38:38;;;;;;;5.95;2.90;;;;;;;18.48;50.79;101441.03;4967238;28;20476;-71
2024/03/18 08:41:04;;;;;;;5.32;3.35;;;;;;;18.56;50.73;101459.78;4967431;28;20042;-71
2024/03/18 08:43:29;;;;;;;5.22;2.75;;;;;;;18.56;50.88;101456.31;4967603;28;20359;-70
2024/03/18 08:45:56;;;;;;;4.78;2.60;;;;;;;18.62;51.25;101484.91;4966875;28;20086;-71
2024/03/18 08:48:22;;;;;;;5.35;3.03;;;;;;;18.60;51.10;101476.28;4967892;28;20022;-71
2024/03/18 08:50:48;;;;;;;5.13;2.80;;;;;;;18.60;51.15;101474.47;4967761;28;20054;-72
2024/03/18 08:53:14;;;;;;;6.35;2.97;;;;;;;18.51;51.00;101461.94;4967520;28;20053;-71
2024/03/18 08:55:40;;;;;;;5.05;2.83;;;;;;;18.65;51.14;101484.69;4964850;28;20039;-72
2024/03/18 08:58:06;;;;;;;7.93;3.08;;;;;;;18.54;51.21;101469.63;4965220;28;20041;-71
2024/03/18 09:00:32;;;;;;;5.47;3.20;;;;;;;18.62;51.14;101480.47;4963969;28;20415;-71
2024/03/18 09:02:57;;;;;;;6.15;3.40;;;;;;;18.55;51.12;101473.09;4964623;28;20464;-71
2024/03/18 09:05:23;;;;;;;5.32;2.72;;;;;;;18.62;50.95;101480.47;4966713;28;20456;-70
2024/03/18 09:07:48;;;;;;;5.13;2.78;;;;;;;18.66;50.91;101478.47;4965802;28;20038;-70
2024/03/18 09:10:13;;;;;;;10.13;3.10;;;;;;;18.59;51.13;101482.50;4967421;28;20025;-70
2024/03/18 09:12:42;;;;;;;5.25;2.78;;;;;;;18.70;51.06;101501.03;4967171;28;20034;-70
2024/03/18 09:15:08;;;;;;;5.43;2.88;;;;;;;18.64;50.92;101493.56;4967728;28;20026;-70
2024/03/18 09:17:33;;;;;;;4.63;2.40;;;;;;;18.58;51.33;101470.25;4966749;28;20117;-69
2024/03/18 09:19:59;;;;;;;7.00;2.47;;;;;;;18.72;51.48;101485.06;4967332;28;20544;-69
2024/03/18 09:22:24;;;;;;;4.35;2.20;;;;;;;18.63;51.53;101473.41;4967347;28;20033;-70
2024/03/18 09:24:49;;;;;;;5.70;2.20;;;;;;;18.75;51.66;101490.13;4967450;28;20039;-70
2024/03/18 09:27:15;;;;;;;6.43;2.90;;;;;;;18.72;51.32;101483.28;4966925;28;20292;-70
2024/03/18 09:29:40;;;;;;;6.53;2.70;;;;;;;18.68;51.19;101493.22;4966903;28;20360;-70
2024/03/18 09:32:06;;;;;;;5.82;2.55;;;;;;;18.74;51.52;101493.72;4966945;28;20042;-70
2024/03/18 09:34:31;;;;;;;5.72;2.25;;;;;;;18.63;51.43;101474.25;4967194;28;20034;-70
2024/03/18 09:36:56;;;;;;;4.55;2.40;;;;;;;18.70;51.46;101482.56;4967086;28;20085;-68
2024/03/18 09:39:22;;;;;;;4.22;2.10;;;;;;;18.75;51.11;101498.88;4966687;28;20030;-69
2024/03/18 09:41:52;;;;;;;4.90;2.28;;;;;;;18.67;51.39;101486.28;4966975;28;20070;-70
2024/03/18 09:44:17;;;;;;;4.90;2.50;;;;;;;18.66;51.40;101476.66;4966916;28;20030;-69
2024/03/18 09:46:43;;;;;;;8.13;2.30;;;;;;;18.78;51.49;101506.59;4966643;28;20146;-71
2024/03/18 09:49:15;;;;;;;8.32;2.28;;;;;;;18.80;51.79;101501.19;4966981;28;20039;-69
2024/03/18 09:51:43;;;;;;;10.52;2.60;;;;;;;18.80;52.30;101493.28;4965997;28;20110;-70
2024/03/18 09:54:17;;;;;;;6.32;2.63;;;;;;;18.71;51.94;101478.97;4965771;28;20035;-69
2024/03/18 09:56:44;;;;;;;5.22;2.10;;;;;;;18.78;51.68;101496.03;4966429;28;20031;-71
2024/03/18 09:59:10;;;;;;;8.57;3.53;;;;;;;18.75;51.70;101490.97;4969963;28;20085;-69
2024/03/18 10:01:36;;;;;;;8.02;2.70;;;;;;;18.76;51.76;101503.22;4969829;28;20031;-69
2024/03/18 10:04:01;;;;;;;7.18;2.40;;;;;;;18.77;51.63;101502.28;4969880;28;20029;-70
2024/03/18 10:06:27;;;;;;;7.40;2.78;;;;;;;18.68;51.56;101490.59;4969648;28;20090;-70
2024/03/18 10:08:52;;;;;;;6.95;3.33;;;;;;;18.75;51.92;101500.69;4966184;28;20046;-72
2024/03/18 10:11:23;;;;;;;7.05;3.05;;;;;;;18.71;52.15;101492.16;4968552;28;20031;-70
2024/03/18 10:13:48;;;;;;;9.18;3.08;;;;;;;18.72;52.14;101491.19;4968563;28;20058;-70
2024/03/18 10:16:14;;;;;;;5.82;2.90;;;;;;;18.70;52.19;101489.63;4967844;28;20897;-72
2024/03/18 10:18:39;;;;;;;7.82;2.92;;;;;;;18.81;52.00;101510.81;4969102;28;20609;-71
2024/03/18 10:21:05;;;;;;;6.55;3.00;;;;;;;18.81;51.96;101511.66;4968358;28;20035;-72
2024/03/18 10:23:30;;;;;;;7.45;3.05;;;;;;;18.75;51.86;101514.72;4969530;28;20093;-71
2024/03/18 10:25:56;;;;;;;4.72;2.40;;;;;;;18.85;51.80;101533.44;4968940;28;20070;-70
2024/03/18 10:28:21;;;;;;;5.38;2.55;;;;;;;18.72;51.82;101506.19;4969878;28;20558;-70
2024/03/18 10:30:47;;;;;;;6.13;2.80;;;;;;;18.81;51.62;101513.44;4969186;28;20031;-71
2024/03/18 10:33:16;;;;;;;5.00;2.65;;;;;;;18.73;51.63;101500.81;4969902;28;20073;-70
2024/03/18 10:35:48;;;;;;;6.47;2.80;;;;;;;18.84;51.59;101529.94;4969908;28;20038;-70
2024/03/18 10:38:24;;;;;;;6.88;2.67;;;;;;;18.77;51.78;101519.91;4969346;28;20388;-70
2024/03/18 10:40:53;;;;;;;6.65;2.75;;;;;;;18.81;51.84;101524.00;4970046;28;20030;-71
2024/03/18 10:43:28;;;;;;;5.80;2.50;;;;;;;18.85;51.82;101528.16;4969891;28;20033;-74
2024/03/18 10:45:55;;;;;;;5.38;2.25;;;;;;;18.73;51.89;101514.00;4969091;28;20041;-72
2024/03/18 10:48:21;;;;;;;6.68;2.65;;;;;;;18.82;51.99;101534.47;4969729;28;20027;-70
2024/03/18 10:50:46;;;;;;;9.65;3.00;;;;;;;18.82;52.02;101534.47;4969163;28;20049;-71
2024/03/18 10:53:17;;;;;;;5.18;2.55;;;;;;;18.75;51.82;101527.94;4969814;28;20018;-70
2024/03/18 10:55:44;;;;;;;5.35;2.70;;;;;;;18.82;51.83;101534.47;4969872;28;20022;-70
2024/03/18 10:58:10;;;;;;;7.75;2.90;;;;;;;18.84;51.55;101537.84;4969403;28;20121;-71
2024/03/18 11:00:35;;;;;;;7.03;2.78;;;;;;;18.83;51.84;101543.22;4968045;28;20570;-71
2024/03/18 11:03:12;;;;;;;7.78;3.20;;;;;;;18.80;51.89;101539.03;4966839;28;21136;-69
2024/03/18 11:05:55;;;;;;;7.10;3.20;;;;;;;18.82;51.93;101537.09;4969471;28;20079;-71
2024/03/18 11:08:23;;;;;;;5.47;2.55;;;;;;;18.85;51.76;101552.75;4966549;28;20121;-72
2024/03/18 11:10:52;;;;;;;13.43;3.70;;;;;;;18.87;51.85;101554.44;4969665;28;20027;-72
2024/03/18 11:13:20;;;;;;;7.40;3.05;;;;;;;18.90;51.97;101559.50;4971277;28;20062;-71
2024/03/18 11:15:48;;;;;;;10.43;3.28;;;;;;;18.90;51.75;101549.78;4971961;28;20039;-72
2024/03/18 11:18:44;;;;;;;6.68;2.88;;;;;;;18.93;51.60;101546.06;4986667;28;20526;-72
2024/03/18 11:21:18;;;;;;;7.32;2.78;;;;;;;18.89;51.62;101552.53;4985669;28;20039;-75
2024/03/18 11:23:54;;;;;;;7.95;2.60;;;;;;;18.87;51.62;101543.88;4971338;28;20053;-70
2024/03/18 11:26:23;;;;;;;8.27;2.95;;;;;;;18.90;51.89;101549.78;4971433;28;20094;-72